メインページ
METAR-TAF:

METAR-TAF

空港 :

カトマンズ, ネパール

トリブバン国際空港

緯度: 27-42N, 経度: 085-22E, 海抜: 1337m

現時点の気象観測

当レポートは14分前の20:50(UTC)に作成
無風
気温 18°C
湿度 100%
気圧 1013 hPa
視程: 2500m
高度1000ftの雲はほとんどない
高度3000ftの雲は散在している
高度9000ftの曇り

METAR: VNKT 292050Z 00000KT 2500 BR FEW010 SCT030 OVC090 18/18 Q1013 NOSIG

時間: 02:49 (21:04 UTC)

予報

当レポートは10時間4分前の11:00(UTC)に作成
予報は29日の 12時(UTC)から 30日の 12時(UTC)まで有効
西/南西の風 5kt
視程: 4000m
高度1500ftの雲はほとんどない
高度2000ftの雲は散在している
高度10000ftの千切れ雲あり
29日の 14時(UTC)から 29日の 15時(UTC)まで徐々に
変向風 2kt
視程: 4000m
高度1500ftの雲はほとんどない
高度10000ftの千切れ雲あり
30日の 00時(UTC)から 30日の 02時(UTC)まで徐々に
の風 kt
視程: 2000m
高度1500ftの雲はほとんどない
高度2500ftの雲は散在している
30日の 04時(UTC)から 30日の 05時(UTC)まで徐々に
南東の風 5kt
視程: 5000m
高度2000ftの雲はほとんどない
高度10000ftの雲は散在している
煙霧
30日の 07時(UTC)から 30日の 09時(UTC)まで徐々に
西/北西の風 8kt
視程: 7000m
高度2500ftの雲はほとんどない
高度10000ftの雲は散在している

TAF: VNKT 291100Z 2912/3012 25005KT 4000 BR FEW015 SCT020 BKN100 BECMG 2914/2915 VRB02KT 4000 BR FEW015 BKN100 BECMG 3000/3002 00000KT 2000 BR FEW015 SCT025 BECMG 3004/3005 14005KT 5000 HZ FEW020 SCT100 BECMG 3007/3009 29008KT 7000 FEW025 SCT100

4,000以上の空港の気象観測と天気予報(METAR報とTAF報)

利用可能な観測所は地図上に黄色い丸と赤い丸で示す。

丸の上にカーソルを重ねると観測所名を参照できる。

次にクリックすると気象観測と天気予報を参照できる。

マップの切り替え:黒色「×」印の緑ボタンをクリックして拡大、「-」印の緑ボタンをクリックして縮小、緑色の三角印をクリックして隣りの地図に切り替え


METAR-TAF: